This is the latest recevied weather packets stored in our database for station/object SV9TNF-1. If no packets are shown the sender has not sent any weather packets the latest 10 day(s).
| Time | Temp. | Humidity | Pressure | Rain* | Wind** | Luminosity | Snow |
|---|---|---|---|---|---|---|---|
| 1777854309 | 11.67° C | 66% | 1006.4 hPa | 0 mm | 0 m/s | - | - |
| 1777854009 | 11.67° C | 66% | 1006.4 hPa | 0 mm | 0 m/s | - | - |
| 1777853709 | 11.67° C | 65% | 1006.4 hPa | 0 mm | 4.92 m/s, 153° | - | - |
| 1777853409 | 11.67° C | 65% | 1006.4 hPa | 0 mm | 3.58 m/s, 123° | - | - |
| 1777853109 | 11.67° C | 66% | 1006.4 hPa | 0 mm | 0.89 m/s, 134° | - | - |
| 1777852809 | 11.67° C | 64% | 1006.4 hPa | 0 mm | 1.79 m/s, 126° | - | - |
| 1777852509 | 12.22° C | 63% | 1006.4 hPa | 0 mm | 4.92 m/s, 4° | - | - |
| 1777852208 | 11.67° C | 66% | 1006.4 hPa | 0 mm | 0.45 m/s, 69° | - | - |
| 1777851908 | 11.67° C | 66% | 1006.4 hPa | 0 mm | 5.81 m/s, 326° | - | - |
| 1777851608 | 12.22° C | 65% | 1006.4 hPa | 0 mm | 2.24 m/s, 27° | - | - |
| 1777851308 | 11.67° C | 65% | 1006.4 hPa | 0 mm | 8.05 m/s, 312° | - | - |
| 1777851008 | 11.67° C | 66% | 1006.4 hPa | 0 mm | 1.34 m/s, 182° | - | - |
| 1777850708 | 11.67° C | 66% | 1006.4 hPa | 0 mm | 4.92 m/s, 226° | - | - |
| 1777850408 | 11.67° C | 66% | 1006.4 hPa | 0 mm | 1.79 m/s, 120° | - | - |
| 1777850108 | 11.67° C | 64% | 1006.4 hPa | 0 mm | 4.92 m/s, 90° | - | - |
| 1777849808 | 11.67° C | 66% | 1006.4 hPa | 0 mm | 0 m/s | - | - |
| 1777849508 | 12.22° C | 67% | 1006.4 hPa | 0 mm | 1.79 m/s, 125° | - | - |
| 1777849208 | 12.22° C | 67% | 1006.8 hPa | 0 mm | 2.68 m/s, 137° | - | - |
| 1777848907 | 12.22° C | 67% | 1006.8 hPa | 0 mm | 1.34 m/s, 134° | - | - |
| 1777848607 | 12.78° C | 66% | 1006.8 hPa | 0 mm | 1.34 m/s, 76° | - | - |
| 1777848307 | 12.78° C | 65% | 1006.8 hPa | 0 mm | 8.94 m/s, 343° | - | - |
| 1777848007 | 12.78° C | 66% | 1006.8 hPa | 1.27 mm | 4.92 m/s, 330° | - | - |
| 1777847707 | 12.78° C | 68% | 1006.8 hPa | 1.27 mm | 10.28 m/s, 335° | - | - |
| 1777847407 | 12.22° C | 68% | 1006.8 hPa | 0 mm | 8.05 m/s, 87° | - | - |
| 1777847107 | 12.22° C | 67% | 1006.8 hPa | 0 mm | 4.92 m/s, 123° | - | - |
* Rain latest hour (hover to see other rain measurements)
** Current wind speed in m/s (hover to see current wind gust speed)